Time;durP1;ratioP1;P1;durP2;ratioP2;P2;SDS_P1;SDS_P2;PMS_P1;PMS_P2;Temp;Humidity;BMP_temperature;BMP_pressure;BME280_temperature;BME280_humidity;BME280_pressure;Samples;Min_cycle;Max_cycle;Signal;HPM_P1;HPM_P2
2023/11/30 00:01:26;;;;;;;12.40;6.88;;;3.90;99.90;;;;;;4991934;28;20037;-91
2023/11/30 00:03:53;;;;;;;9.57;5.93;;;3.90;99.90;;;;;;5009440;28;20085;-91
2023/11/30 00:06:20;;;;;;;10.95;6.55;;;4.00;99.90;;;;;;4994594;28;20473;-91
2023/11/30 00:08:53;;;;;;;10.95;6.65;;;4.00;99.90;;;;;;4990695;28;20038;-91
2023/11/30 00:11:21;;;;;;;12.32;6.97;;;3.90;99.90;;;;;;4994842;28;20031;-91
2023/11/30 00:13:47;;;;;;;11.85;6.53;;;3.90;99.90;;;;;;4992426;28;20035;-91
2023/11/30 00:16:12;;;;;;;12.88;7.32;;;4.00;99.90;;;;;;4997975;28;20032;-91
2023/11/30 00:18:41;;;;;;;15.30;6.90;;;4.00;99.90;;;;;;4994264;28;20041;-91
2023/11/30 00:21:07;;;;;;;12.40;7.47;;;3.80;99.90;;;;;;4975858;28;20042;-91
2023/11/30 00:23:34;;;;;;;16.65;8.25;;;3.90;99.90;;;;;;4991492;28;20029;-90
2023/11/30 00:26:00;;;;;;;14.18;7.65;;;3.90;99.90;;;;;;4994280;28;20138;-91
2023/11/30 00:28:26;;;;;;;14.95;6.97;;;4.00;99.90;;;;;;4992777;28;20071;-91
2023/11/30 00:30:51;;;;;;;14.63;7.32;;;3.90;99.90;;;;;;4990877;28;20030;-91
2023/11/30 00:33:17;;;;;;;14.88;7.43;;;4.00;99.90;;;;;;4991928;28;20375;-91
2023/11/30 00:35:42;;;;;;;12.82;7.45;;;4.10;99.90;;;;;;4991804;28;20117;-91
2023/11/30 00:38:10;;;;;;;12.43;6.80;;;4.10;99.90;;;;;;4992701;28;20034;-91
2023/11/30 00:40:37;;;;;;;;;;;4.10;99.90;;;;;;4992943;28;20033;-91
2023/11/30 00:43:03;;;;;;;15.23;6.95;;;4.10;99.90;;;;;;5007043;28;19933;-91
2023/11/30 00:45:32;;;;;;;15.73;6.50;;;4.00;99.90;;;;;;5006950;28;20035;-91
2023/11/30 00:47:58;;;;;;;11.77;6.63;;;3.90;99.90;;;;;;4986374;28;20039;-90
2023/11/30 00:50:26;;;;;;;10.63;7.45;;;3.80;99.90;;;;;;5009955;28;20120;-91
2023/11/30 00:52:52;;;;;;;13.18;6.78;;;3.70;99.90;;;;;;5006473;28;20026;-91
2023/11/30 00:55:17;;;;;;;14.73;7.45;;;3.80;99.90;;;;;;4976527;28;20084;-90
2023/11/30 00:57:45;;;;;;;11.68;7.13;;;3.90;99.90;;;;;;4991983;28;20038;-91
2023/11/30 01:00:13;;;;;;;;;;;3.70;99.90;;;;;;4992429;28;20031;-91
2023/11/30 01:02:40;;;;;;;14.45;6.50;;;3.70;99.90;;;;;;4988262;28;19917;-91
2023/11/30 01:05:06;;;;;;;13.00;6.85;;;3.70;99.90;;;;;;4989453;28;20116;-91
2023/11/30 01:07:32;;;;;;;12.68;6.47;;;3.80;99.90;;;;;;5005415;28;20026;-91
2023/11/30 01:09:57;;;;;;;13.48;6.35;;;3.80;99.90;;;;;;4988670;28;20030;-91
2023/11/30 01:12:26;;;;;;;12.95;6.82;;;3.80;99.90;;;;;;4989743;28;20034;-91
2023/11/30 01:14:52;;;;;;;12.07;6.75;;;3.80;99.90;;;;;;4973532;28;20109;-91
2023/11/30 01:17:18;;;;;;;10.43;6.20;;;3.90;99.90;;;;;;4991363;28;20030;-91
2023/11/30 01:19:43;;;;;;;13.52;6.32;;;3.90;99.90;;;;;;5007449;28;20045;-91
2023/11/30 01:22:12;;;;;;;12.68;6.72;;;3.90;99.90;;;;;;4991962;28;20026;-91
2023/11/30 01:24:37;;;;;;;11.40;6.82;;;3.90;99.90;;;;;;4991923;28;20030;-91
2023/11/30 01:27:06;;;;;;;13.68;7.05;;;3.80;99.90;;;;;;4994822;28;20042;-91
2023/11/30 01:29:32;;;;;;;13.65;6.97;;;4.00;99.90;;;;;;4992352;28;20033;-90
2023/11/30 01:31:58;;;;;;;10.82;6.35;;;3.80;99.90;;;;;;4992134;28;20486;-91
2023/11/30 01:34:23;;;;;;;11.85;6.35;;;3.70;99.90;;;;;;4991892;28;20031;-90
2023/11/30 01:36:49;;;;;;;11.85;6.60;;;3.70;99.90;;;;;;5008381;28;20030;-91
2023/11/30 01:39:18;;;;;;;17.52;7.63;;;3.80;99.90;;;;;;4992384;28;20054;-90
2023/11/30 01:41:43;;;;;;;13.20;6.72;;;3.60;99.90;;;;;;4992176;28;20034;-91
2023/11/30 01:44:09;;;;;;;11.30;6.10;;;3.50;99.90;;;;;;4991963;28;20084;-90
2023/11/30 01:46:37;;;;;;;14.15;7.72;;;3.50;99.90;;;;;;4973279;28;20101;-91
2023/11/30 01:49:05;;;;;;;12.65;6.70;;;3.40;99.90;;;;;;4991778;28;20038;-91
2023/11/30 01:51:35;;;;;;;12.48;7.00;;;3.40;99.90;;;;;;4993433;28;20034;-91
2023/11/30 01:54:05;;;;;;;12.77;7.20;;;3.20;99.90;;;;;;4985747;28;20064;-91
2023/11/30 01:56:32;;;;;;;15.85;6.93;;;3.30;99.90;;;;;;4992436;28;20030;-90
2023/11/30 01:58:58;;;;;;;14.43;7.47;;;3.30;99.90;;;;;;4992519;28;20482;-90
2023/11/30 02:01:26;;;;;;;12.52;6.63;;;3.10;99.90;;;;;;4991135;28;20034;-91
2023/11/30 02:03:52;;;;;;;;;;;3.20;99.90;;;;;;4992212;28;20088;-91
2023/11/30 02:06:19;;;;;;;12.18;6.47;;;3.30;99.90;;;;;;5007163;28;19997;-91
2023/11/30 02:08:47;;;;;;;12.93;6.53;;;3.40;99.90;;;;;;4997399;28;20034;-90
2023/11/30 02:11:16;;;;;;;12.85;6.88;;;3.30;99.90;;;;;;4991275;28;20026;-91
2023/11/30 02:13:45;;;;;;;14.05;7.50;;;3.30;99.90;;;;;;4975961;28;20026;-91
2023/11/30 02:16:10;;;;;;;16.33;7.65;;;3.20;99.90;;;;;;4990296;28;20047;-90
2023/11/30 02:18:36;;;;;;;11.75;6.93;;;3.20;99.90;;;;;;4988788;28;20038;-91
2023/11/30 02:21:01;;;;;;;13.82;7.13;;;3.20;99.90;;;;;;5007982;28;20026;-90
2023/11/30 02:23:28;;;;;;;13.90;6.40;;;3.10;99.90;;;;;;4992510;28;20026;-90
2023/11/30 02:25:55;;;;;;;12.65;6.70;;;3.20;99.90;;;;;;4991449;28;20034;-91
2023/11/30 02:28:23;;;;;;;15.48;7.90;;;3.20;99.90;;;;;;4991594;28;20085;-91
2023/11/30 02:30:49;;;;;;;;;;;3.20;99.90;;;;;;4993813;28;20026;-91
2023/11/30 02:33:16;;;;;;;13.50;6.38;;;3.20;99.90;;;;;;5010393;28;19945;-91
2023/11/30 02:35:42;;;;;;;12.80;6.63;;;3.10;99.90;;;;;;4995480;28;20033;-91
2023/11/30 02:38:08;;;;;;;14.32;7.57;;;3.00;99.90;;;;;;4992009;28;20050;-91
2023/11/30 02:40:33;;;;;;;13.70;7.43;;;3.00;99.90;;;;;;4990625;28;20073;-91
2023/11/30 02:42:59;;;;;;;14.32;7.18;;;3.00;99.90;;;;;;4990936;28;20027;-91
2023/11/30 02:45:24;;;;;;;14.30;7.05;;;3.00;99.90;;;;;;4990973;28;20034;-91
2023/11/30 02:47:50;;;;;;;14.90;7.20;;;3.00;99.90;;;;;;4974601;28;20061;-91
2023/11/30 02:50:16;;;;;;;12.32;6.68;;;2.90;99.90;;;;;;4989068;28;20066;-91
2023/11/30 02:52:41;;;;;;;12.30;6.65;;;2.80;99.90;;;;;;4991548;28;20026;-90
2023/11/30 02:55:07;;;;;;;14.63;7.43;;;2.90;99.90;;;;;;4988778;28;20664;-91
2023/11/30 02:57:33;;;;;;;13.25;6.55;;;2.80;99.90;;;;;;4991823;28;20035;-90
2023/11/30 02:59:59;;;;;;;12.65;7.22;;;2.80;99.90;;;;;;5002272;28;20031;-90
2023/11/30 03:02:25;;;;;;;13.13;6.88;;;2.80;99.90;;;;;;4995267;28;20522;-91
2023/11/30 03:04:50;;;;;;;11.45;6.47;;;2.80;99.90;;;;;;4984063;28;20388;-91
2023/11/30 03:07:16;;;;;;;13.15;6.55;;;2.70;99.90;;;;;;5005404;28;20023;-91
2023/11/30 03:09:43;;;;;;;12.77;6.72;;;2.70;99.90;;;;;;4991453;28;20621;-91
2023/11/30 03:12:08;;;;;;;11.88;6.40;;;2.70;99.90;;;;;;4990757;28;20375;-90
2023/11/30 03:14:34;;;;;;;12.48;6.25;;;2.70;99.90;;;;;;4990191;28;20029;-90
2023/11/30 03:17:00;;;;;;;14.25;6.07;;;2.70;99.90;;;;;;4990019;28;20113;-90
2023/11/30 03:19:25;;;;;;;13.18;7.32;;;2.70;99.90;;;;;;4990802;28;20605;-90
2023/11/30 03:21:51;;;;;;;10.68;6.00;;;2.70;99.90;;;;;;4991127;28;20030;-90
2023/11/30 03:24:18;;;;;;;13.88;6.47;;;2.60;99.90;;;;;;4990594;28;20045;-90
2023/11/30 03:26:43;;;;;;;13.70;7.72;;;2.60;99.90;;;;;;4978253;28;20066;-90
2023/11/30 03:29:10;;;;;;;12.02;6.53;;;2.50;99.90;;;;;;4994787;28;20077;-90
2023/11/30 03:31:37;;;;;;;14.90;6.63;;;2.50;99.90;;;;;;4989524;28;20034;-90
2023/11/30 03:34:03;;;;;;;12.05;6.55;;;2.50;99.90;;;;;;5014086;28;20267;-91
2023/11/30 03:36:31;;;;;;;16.35;6.97;;;2.50;99.90;;;;;;4994603;28;20057;-91
2023/11/30 03:38:56;;;;;;;11.55;6.80;;;2.50;99.90;;;;;;4995490;28;20445;-90
2023/11/30 03:41:22;;;;;;;13.82;7.10;;;2.40;99.90;;;;;;4994093;28;20026;-90
2023/11/30 03:43:48;;;;;;;12.45;6.75;;;2.40;99.90;;;;;;5008770;28;20030;-90
2023/11/30 03:46:14;;;;;;;14.85;7.03;;;2.40;99.90;;;;;;4994541;28;20034;-91
2023/11/30 03:48:40;;;;;;;12.60;6.50;;;2.40;99.90;;;;;;4994981;28;20417;-90
2023/11/30 03:51:06;;;;;;;12.40;6.22;;;2.40;99.90;;;;;;4995222;28;20080;-90
2023/11/30 03:53:35;;;;;;;10.75;5.78;;;2.40;99.90;;;;;;4993802;28;20027;-90
2023/11/30 03:56:01;;;;;;;14.30;7.25;;;2.40;99.90;;;;;;5000679;28;20033;-88
2023/11/30 03:58:27;;;;;;;13.75;6.85;;;2.30;99.90;;;;;;4994105;28;20528;-89
2023/11/30 04:00:52;;;;;;;14.55;7.32;;;2.30;99.90;;;;;;4994446;28;20493;-90
2023/11/30 04:03:20;;;;;;;12.80;6.65;;;2.30;99.90;;;;;;4992734;28;20141;-90
2023/11/30 04:05:46;;;;;;;13.10;6.72;;;2.30;99.90;;;;;;4993218;28;20038;-91
2023/11/30 04:08:12;;;;;;;16.05;7.55;;;2.20;99.90;;;;;;5009167;28;20035;-91
2023/11/30 04:10:37;;;;;;;15.75;7.45;;;2.20;99.90;;;;;;4992895;28;20667;-90
2023/11/30 04:13:05;;;;;;;16.85;7.93;;;2.20;99.90;;;;;;4988036;28;20030;-90
2023/11/30 04:15:31;;;;;;;14.25;7.53;;;2.20;99.90;;;;;;4993579;28;20045;-90
2023/11/30 04:18:01;;;;;;;13.30;7.10;;;2.30;99.90;;;;;;5002228;28;20624;-90
2023/11/30 04:20:27;;;;;;;12.27;6.70;;;2.20;99.90;;;;;;4993049;28;20425;-91
2023/11/30 04:23:00;;;;;;;14.82;7.45;;;2.10;99.90;;;;;;5009795;28;20022;-90
2023/11/30 04:25:26;;;;;;;13.65;7.57;;;2.10;99.90;;;;;;4992215;28;21381;-91
2023/11/30 04:27:53;;;;;;;18.48;7.88;;;2.10;99.90;;;;;;5008969;28;20031;-90
2023/11/30 04:30:19;;;;;;;;;;;2.10;99.90;;;;;;4996852;28;20038;-90
2023/11/30 04:32:47;;;;;;;12.85;7.28;;;2.00;99.90;;;;;;4994081;28;19910;-90
2023/11/30 04:35:13;;;;;;;15.68;7.90;;;2.00;99.90;;;;;;4976996;28;20031;-90
2023/11/30 04:37:39;;;;;;;19.08;7.93;;;2.10;99.90;;;;;;4994286;28;20085;-90
2023/11/30 04:40:06;;;;;;;15.43;7.63;;;2.00;99.90;;;;;;4993458;28;20022;-89
2023/11/30 04:42:31;;;;;;;18.17;7.90;;;2.00;99.90;;;;;;4994608;28;20052;-90
2023/11/30 04:44:59;;;;;;;13.40;7.22;;;2.00;99.90;;;;;;4995151;28;20767;-90
2023/11/30 04:47:25;;;;;;;;;;;1.90;99.90;;;;;;5004140;28;20402;-90
2023/11/30 04:49:55;;;;;;;18.45;7.18;;;2.00;99.90;;;;;;4989735;28;19960;-90
2023/11/30 04:52:21;;;;;;;13.20;7.38;;;1.90;99.90;;;;;;4992267;28;20548;-91
2023/11/30 04:54:48;;;;;;;15.73;7.70;;;1.90;99.90;;;;;;4992308;28;20042;-90
2023/11/30 04:57:16;;;;;;;12.77;7.13;;;2.10;99.90;;;;;;4990895;28;20117;-89
2023/11/30 04:59:42;;;;;;;11.98;6.90;;;2.20;99.90;;;;;;4992641;28;20431;-90
2023/11/30 05:02:08;;;;;;;12.13;6.30;;;2.00;99.90;;;;;;4992120;28;20612;-91
2023/11/30 05:04:37;;;;;;;12.82;6.95;;;2.00;99.90;;;;;;4991583;28;20042;-91
2023/11/30 05:07:02;;;;;;;14.98;7.50;;;2.00;99.90;;;;;;4991848;28;20033;-90
2023/11/30 05:09:28;;;;;;;15.45;7.60;;;1.90;99.90;;;;;;4990057;28;20022;-90
2023/11/30 05:11:54;;;;;;;14.80;6.68;;;1.90;99.90;;;;;;4989219;28;20034;-90
2023/11/30 05:14:19;;;;;;;15.10;7.47;;;1.80;99.90;;;;;;4990000;28;20030;-90
2023/11/30 05:16:47;;;;;;;14.38;6.97;;;1.80;99.90;;;;;;4989946;28;20085;-89
2023/11/30 05:19:13;;;;;;;12.10;6.07;;;1.80;99.90;;;;;;4989063;28;20070;-90
2023/11/30 05:21:38;;;;;;;12.73;7.57;;;1.80;99.90;;;;;;4993133;28;20084;-91
2023/11/30 05:24:04;;;;;;;13.45;7.05;;;1.80;99.90;;;;;;5009708;28;20022;-91
2023/11/30 05:26:32;;;;;;;17.30;7.57;;;1.80;99.90;;;;;;4992415;28;20034;-90
2023/11/30 05:28:58;;;;;;;14.15;7.60;;;1.80;99.90;;;;;;5002943;28;20026;-90
2023/11/30 05:31:26;;;;;;;14.63;7.72;;;1.80;99.90;;;;;;4993911;28;20030;-90
2023/11/30 05:33:51;;;;;;;;;;;1.80;99.90;;;;;;4993147;28;20045;-90
2023/11/30 05:36:17;;;;;;;14.23;7.40;;;1.90;99.90;;;;;;4989134;28;19980;-90
2023/11/30 05:38:43;;;;;;;13.60;7.65;;;1.90;99.90;;;;;;4994777;28;20114;-89
2023/11/30 05:41:11;;;;;;;14.43;7.40;;;1.90;99.90;;;;;;4989338;28;20061;-90
2023/11/30 05:43:39;;;;;;;14.05;7.80;;;2.00;99.90;;;;;;5007769;28;20717;-90
2023/11/30 05:46:05;;;;;;;14.75;8.15;;;1.90;99.90;;;;;;4974237;28;20824;-91
2023/11/30 05:48:33;;;;;;;14.85;7.72;;;1.90;99.90;;;;;;4990243;28;20121;-90
2023/11/30 05:50:58;;;;;;;16.55;8.20;;;1.80;99.90;;;;;;4990661;28;20022;-91
2023/11/30 05:53:28;;;;;;;12.20;7.05;;;1.80;99.90;;;;;;4991666;28;20031;-91
2023/11/30 05:55:54;;;;;;;15.73;7.47;;;1.90;99.90;;;;;;4989981;28;20037;-90
2023/11/30 05:58:20;;;;;;;17.27;7.78;;;2.10;99.90;;;;;;5003232;28;20378;-90
2023/11/30 06:00:48;;;;;;;16.17;7.88;;;2.20;99.90;;;;;;4989985;28;20049;-90
2023/11/30 06:03:13;;;;;;;13.18;6.78;;;2.10;99.90;;;;;;4989439;28;20113;-90
2023/11/30 06:05:39;;;;;;;16.58;7.60;;;2.00;99.90;;;;;;4991044;28;20125;-90
2023/11/30 06:08:04;;;;;;;14.45;7.10;;;1.90;99.90;;;;;;5004063;28;20030;-90
2023/11/30 06:10:30;;;;;;;14.02;7.60;;;1.80;99.90;;;;;;5011127;28;20037;-90
2023/11/30 06:12:58;;;;;;;15.40;7.75;;;1.90;99.90;;;;;;4989050;28;20022;-90
2023/11/30 06:15:23;;;;;;;16.00;7.82;;;2.10;99.90;;;;;;4987935;28;20117;-90
2023/11/30 06:17:50;;;;;;;18.73;8.25;;;2.10;99.90;;;;;;4987268;28;20115;-90
2023/11/30 06:20:19;;;;;;;17.23;7.90;;;2.10;99.90;;;;;;4990235;28;20030;-90
2023/11/30 06:22:46;;;;;;;18.08;8.68;;;2.00;99.90;;;;;;4995852;28;20039;-90
2023/11/30 06:25:13;;;;;;;16.50;7.75;;;1.90;99.90;;;;;;4984482;28;20418;-89
2023/11/30 06:27:38;;;;;;;18.63;8.55;;;2.10;99.90;;;;;;4970888;28;20031;-90
2023/11/30 06:30:05;;;;;;;18.27;10.07;;;2.10;99.90;;;;;;5006979;28;20027;-91
2023/11/30 06:32:30;;;;;;;19.65;10.18;;;2.10;99.90;;;;;;4986210;28;20023;-89
2023/11/30 06:34:56;;;;;;;18.77;9.70;;;2.10;99.90;;;;;;4989066;28;20026;-91
2023/11/30 06:37:22;;;;;;;18.98;8.73;;;2.10;99.90;;;;;;4990131;28;20030;-91
2023/11/30 06:39:47;;;;;;;23.35;10.63;;;2.10;99.90;;;;;;4991036;28;20042;-89
2023/11/30 06:42:13;;;;;;;20.10;8.63;;;2.20;99.90;;;;;;5005338;28;20995;-90
2023/11/30 06:44:43;;;;;;;20.63;9.63;;;2.20;99.90;;;;;;4989841;28;20034;-91
2023/11/30 06:47:11;;;;;;;25.45;8.18;;;2.30;99.90;;;;;;4988852;28;20096;-90
2023/11/30 06:49:37;;;;;;;16.98;9.43;;;2.40;99.90;;;;;;4989261;28;20034;-91
2023/11/30 06:52:03;;;;;;;22.85;8.00;;;2.50;99.90;;;;;;4989872;28;20050;-91
2023/11/30 06:54:31;;;;;;;21.73;9.07;;;2.50;99.90;;;;;;4990712;28;20031;-90
2023/11/30 06:56:56;;;;;;;;;;;2.60;99.90;;;;;;4989832;28;20022;-90
2023/11/30 06:59:24;;;;;;;15.82;8.63;;;2.90;99.90;;;;;;4988566;28;19916;-90
2023/11/30 07:01:52;;;;;;;17.23;8.32;;;2.80;99.90;;;;;;4991878;28;20045;-90
2023/11/30 07:04:20;;;;;;;18.10;8.60;;;2.80;99.90;;;;;;4998535;28;20154;-90
2023/11/30 07:06:46;;;;;;;;;;;2.80;99.90;;;;;;5011278;28;20041;-88
2023/11/30 07:09:14;;;;;;;25.48;8.07;;;2.90;99.90;;;;;;5011502;28;20008;-90
2023/11/30 07:11:42;;;;;;;23.58;8.05;;;3.00;99.90;;;;;;4992445;28;20129;-92
2023/11/30 07:14:08;;;;;;;25.35;9.00;;;2.90;99.90;;;;;;4994390;28;20069;-91
2023/11/30 07:16:33;;;;;;;23.85;8.27;;;2.80;99.90;;;;;;4995060;28;20026;-90
2023/11/30 07:18:59;;;;;;;28.20;9.18;;;2.70;99.90;;;;;;4994509;28;20038;-89
2023/11/30 07:21:27;;;;;;;20.70;9.45;;;2.70;99.90;;;;;;5002496;28;20026;-90
2023/11/30 07:23:53;;;;;;;20.50;8.68;;;2.60;99.90;;;;;;4995203;28;20060;-90
2023/11/30 07:26:21;;;;;;;20.08;8.40;;;2.50;99.90;;;;;;4995058;28;20060;-90
2023/11/30 07:28:49;;;;;;;19.52;9.18;;;2.60;99.90;;;;;;4994765;28;20609;-90
2023/11/30 07:31:21;;;;;;;24.85;8.48;;;2.70;99.90;;;;;;4994883;28;20026;-90
2023/11/30 07:33:50;;;;;;;23.23;9.95;;;2.60;99.90;;;;;;5006567;28;20396;-89
2023/11/30 07:36:15;;;;;;;16.27;9.13;;;2.60;99.90;;;;;;4970655;28;20035;-90
2023/11/30 07:38:41;;;;;;;21.55;8.93;;;2.60;99.90;;;;;;4994695;28;20037;-90
2023/11/30 07:41:07;;;;;;;23.95;9.38;;;2.70;99.90;;;;;;4994933;28;20030;-90
2023/11/30 07:43:33;;;;;;;22.02;9.57;;;2.90;99.90;;;;;;4994485;28;20056;-89
2023/11/30 07:45:59;;;;;;;26.17;9.80;;;2.90;99.90;;;;;;4994408;28;20490;-91
2023/11/30 07:48:27;;;;;;;27.20;10.75;;;2.90;99.90;;;;;;4994801;28;20061;-90
2023/11/30 07:50:56;;;;;;;21.60;9.50;;;2.90;99.90;;;;;;4994406;28;20035;-90
2023/11/30 07:53:24;;;;;;;24.73;11.70;;;2.80;99.90;;;;;;4994183;28;20037;-90
2023/11/30 07:55:56;;;;;;;;;;;2.80;99.90;;;;;;4994317;28;20497;-90
2023/11/30 07:58:24;;;;;;;37.47;10.75;;;2.70;99.90;;;;;;5009651;28;19933;-91
2023/11/30 08:00:50;;;;;;;36.20;11.63;;;2.70;99.90;;;;;;4999968;28;20493;-90
2023/11/30 08:03:18;;;;;;;28.92;11.15;;;2.70;99.90;;;;;;4994787;28;20046;-90
2023/11/30 08:05:44;;;;;;;22.40;10.75;;;2.70;99.90;;;;;;4995807;28;20114;-91
2023/11/30 08:08:10;;;;;;;31.80;11.30;;;2.70;99.90;;;;;;4993898;28;20109;-89
2023/11/30 08:10:36;;;;;;;33.22;12.48;;;2.70;99.90;;;;;;4994269;28;20397;-90
2023/11/30 08:13:02;;;;;;;31.92;11.18;;;2.80;99.90;;;;;;4978306;28;20034;-90
2023/11/30 08:15:29;;;;;;;28.73;11.68;;;2.80;99.90;;;;;;4994489;28;20026;-90
2023/11/30 08:17:55;;;;;;;32.63;13.98;;;2.80;99.90;;;;;;4992304;28;20102;-90
2023/11/30 08:20:21;;;;;;;27.85;12.15;;;2.80;99.90;;;;;;4992088;28;20121;-91
2023/11/30 08:22:50;;;;;;;30.25;11.57;;;2.80;99.90;;;;;;4992070;28;20026;-90
2023/11/30 08:25:16;;;;;;;40.15;13.88;;;2.90;99.90;;;;;;4991768;28;20137;-91
2023/11/30 08:27:42;;;;;;;32.38;13.43;;;2.90;99.90;;;;;;5005766;28;20630;-89
2023/11/30 08:30:11;;;;;;;33.70;12.25;;;2.80;99.90;;;;;;4975567;28;20035;-90
2023/11/30 08:32:37;;;;;;;25.40;12.63;;;2.80;99.90;;;;;;4994297;28;20015;-91
2023/11/30 08:35:04;;;;;;;31.20;12.10;;;2.90;99.90;;;;;;4994014;28;20033;-90
2023/11/30 08:37:29;;;;;;;34.80;12.32;;;2.90;99.90;;;;;;4995496;28;20033;-91
2023/11/30 08:39:55;;;;;;;36.70;13.35;;;2.90;99.90;;;;;;4990697;28;20038;-90
2023/11/30 08:42:21;;;;;;;32.85;12.75;;;2.90;99.90;;;;;;5009431;28;20100;-90
2023/11/30 08:44:47;;;;;;;29.73;11.32;;;3.00;99.90;;;;;;4993999;28;20048;-90
2023/11/30 08:47:17;;;;;;;39.25;11.95;;;3.10;99.90;;;;;;4994094;28;20670;-91
2023/11/30 08:49:45;;;;;;;23.75;10.85;;;3.00;99.90;;;;;;5003308;28;20506;-91
2023/11/30 08:52:11;;;;;;;;;;;2.90;99.90;;;;;;4994813;28;20121;-91
2023/11/30 08:54:37;;;;;;;25.00;10.55;;;3.00;99.90;;;;;;4992675;28;19996;-91
2023/11/30 08:57:04;;;;;;;32.28;12.50;;;2.90;99.90;;;;;;4977961;28;20026;-91
2023/11/30 08:59:30;;;;;;;27.63;11.65;;;2.90;99.90;;;;;;4997655;28;20027;-90
2023/11/30 09:01:58;;;;;;;24.52;11.23;;;3.00;99.90;;;;;;4991949;28;20070;-90
2023/11/30 09:04:24;;;;;;;26.55;10.60;;;3.30;99.90;;;;;;4993878;28;20042;-90
2023/11/30 09:06:50;;;;;;;23.88;10.27;;;3.40;99.90;;;;;;4994656;28;20719;-90
2023/11/30 09:09:15;;;;;;;22.77;10.27;;;3.50;99.90;;;;;;4993285;28;20031;-91
2023/11/30 09:11:44;;;;;;;22.48;11.45;;;3.60;99.90;;;;;;4994639;28;20363;-91
2023/11/30 09:14:10;;;;;;;23.15;11.15;;;3.60;99.90;;;;;;4992995;28;20045;-90
2023/11/30 09:16:38;;;;;;;23.70;10.65;;;3.70;99.90;;;;;;4992972;28;20529;-91
2023/11/30 09:19:06;;;;;;;21.95;11.05;;;3.70;99.90;;;;;;4997454;28;20045;-91
2023/11/30 09:21:32;;;;;;;24.95;11.38;;;3.80;99.90;;;;;;4993419;28;20044;-91
2023/11/30 09:24:03;;;;;;;26.02;11.35;;;3.80;99.90;;;;;;5009071;28;20031;-91
2023/11/30 09:26:30;;;;;;;23.63;10.70;;;3.80;99.90;;;;;;4993336;28;20038;-91
2023/11/30 09:28:56;;;;;;;23.40;12.50;;;3.80;99.90;;;;;;4992606;28;20092;-90
2023/11/30 09:31:22;;;;;;;27.55;12.50;;;3.80;99.90;;;;;;4992776;28;20438;-91
2023/11/30 09:33:48;;;;;;;30.25;12.13;;;3.80;99.90;;;;;;4992055;28;20109;-89
2023/11/30 09:36:13;;;;;;;36.95;14.25;;;3.80;99.90;;;;;;5009317;28;20492;-90
2023/11/30 09:38:39;;;;;;;29.85;12.65;;;3.90;99.90;;;;;;4993378;28;20030;-91
2023/11/30 09:41:06;;;;;;;31.50;14.60;;;4.00;99.90;;;;;;4993169;28;20048;-91
2023/11/30 09:43:32;;;;;;;29.85;14.13;;;3.80;99.90;;;;;;4992378;28;20031;-91
2023/11/30 09:45:59;;;;;;;42.35;18.00;;;3.80;99.90;;;;;;4987576;28;20046;-90
2023/11/30 09:48:25;;;;;;;30.58;14.05;;;3.80;99.90;;;;;;4991168;28;20497;-91
2023/11/30 09:50:50;;;;;;;31.50;13.77;;;4.00;99.90;;;;;;4991546;28;20045;-91
2023/11/30 09:53:16;;;;;;;33.05;13.13;;;4.10;99.90;;;;;;5001140;28;20135;-91
2023/11/30 09:55:42;;;;;;;27.90;13.15;;;3.90;99.90;;;;;;4990984;28;20023;-91
2023/11/30 09:58:08;;;;;;;31.25;13.90;;;3.90;99.90;;;;;;4986047;28;20398;-91
2023/11/30 10:00:34;;;;;;;27.65;12.68;;;4.00;99.90;;;;;;4993772;28;20050;-91
2023/11/30 10:03:05;;;;;;;30.48;13.15;;;4.10;99.90;;;;;;4994543;28;20045;-91
2023/11/30 10:05:31;;;;;;;25.13;11.32;;;4.10;99.90;;;;;;4973163;28;20031;-91
2023/11/30 10:08:01;;;;;;;26.95;13.25;;;4.10;99.90;;;;;;4994023;28;20088;-91
2023/11/30 10:10:27;;;;;;;28.92;12.80;;;4.20;99.90;;;;;;4995623;28;20050;-89
2023/11/30 10:12:57;;;;;;;28.30;12.98;;;4.10;99.90;;;;;;5008002;28;20101;-91
2023/11/30 10:15:22;;;;;;;27.08;12.50;;;3.90;99.90;;;;;;4993509;28;20026;-91
2023/11/30 10:17:49;;;;;;;25.67;11.77;;;3.80;99.90;;;;;;4993403;28;20405;-90
2023/11/30 10:20:16;;;;;;;31.65;13.45;;;3.80;99.90;;;;;;4991489;28;20035;-90
2023/11/30 10:22:44;;;;;;;31.85;12.65;;;4.00;99.90;;;;;;4993030;28;20077;-91
2023/11/30 10:25:10;;;;;;;26.17;12.52;;;4.00;99.90;;;;;;4990921;28;20038;-91
2023/11/30 10:27:36;;;;;;;24.52;12.40;;;4.00;99.90;;;;;;4991764;28;20564;-90
2023/11/30 10:30:06;;;;;;;26.70;13.07;;;4.10;99.90;;;;;;4991612;28;20030;-91
2023/11/30 10:32:34;;;;;;;26.80;12.13;;;4.10;99.90;;;;;;4975840;28;20521;-91
2023/11/30 10:35:05;;;;;;;23.63;11.95;;;4.20;99.90;;;;;;5007954;28;20034;-91
2023/11/30 10:37:34;;;;;;;27.02;12.23;;;4.20;99.90;;;;;;4991065;28;20517;-89
2023/11/30 10:40:04;;;;;;;29.90;12.80;;;4.30;99.90;;;;;;4991195;28;20148;-91
2023/11/30 10:42:32;;;;;;;23.33;11.60;;;4.30;99.90;;;;;;4991455;28;20133;-91
2023/11/30 10:45:02;;;;;;;26.50;13.07;;;4.30;99.90;;;;;;4996866;28;20038;-90
2023/11/30 10:47:29;;;;;;;28.65;12.90;;;4.30;99.90;;;;;;4991614;28;20417;-91
2023/11/30 10:49:59;;;;;;;30.23;14.77;;;4.20;99.90;;;;;;4991514;28;20100;-91
2023/11/30 10:52:27;;;;;;;31.38;14.50;;;4.30;99.90;;;;;;4992254;28;20026;-91
2023/11/30 10:54:58;;;;;;;25.73;13.65;;;4.40;99.90;;;;;;4992069;28;20026;-91
2023/11/30 10:57:26;;;;;;;27.15;13.73;;;4.20;99.90;;;;;;4991124;28;20033;-91
2023/11/30 11:00:05;;;;;;;35.83;15.00;;;4.30;99.90;;;;;;4995404;28;20077;-91
2023/11/30 11:02:38;;;;;;;35.20;14.70;;;4.30;99.90;;;;;;4991591;28;20033;-91
2023/11/30 11:05:22;;;;;;;25.98;13.35;;;4.30;99.90;;;;;;4979602;28;20562;-91
2023/11/30 11:07:52;;;;;;;30.70;12.68;;;4.40;99.90;;;;;;4994113;28;20030;-90
2023/11/30 11:10:26;;;;;;;32.05;13.73;;;4.50;99.90;;;;;;5002384;28;20075;-89
2023/11/30 11:12:52;;;;;;;27.63;13.95;;;4.60;99.90;;;;;;4975743;28;20122;-91
2023/11/30 11:15:20;;;;;;;27.38;12.68;;;4.60;99.90;;;;;;4990827;28;20064;-91
2023/11/30 11:17:51;;;;;;;;;;;4.70;99.90;;;;;;4991839;28;20678;-90
2023/11/30 11:20:21;;;;;;;28.70;13.38;;;4.70;99.90;;;;;;5006801;28;20388;-91
2023/11/30 11:22:51;;;;;;;32.80;12.77;;;4.70;99.90;;;;;;4990898;28;20060;-90
2023/11/30 11:25:17;;;;;;;26.70;13.15;;;4.70;99.90;;;;;;4990405;28;20600;-91
2023/11/30 11:27:45;;;;;;;27.77;13.55;;;4.60;99.90;;;;;;4992098;28;20068;-91
2023/11/30 11:30:14;;;;;;;32.10;14.40;;;4.60;99.90;;;;;;4997289;28;20062;-91
2023/11/30 11:32:42;;;;;;;27.75;13.82;;;4.60;99.90;;;;;;4988165;28;20105;-91
2023/11/30 11:35:09;;;;;;;40.28;14.82;;;4.80;99.90;;;;;;4991081;28;20333;-91
2023/11/30 11:37:34;;;;;;;39.47;13.63;;;4.70;99.90;;;;;;4992833;28;20114;-91
2023/11/30 11:40:01;;;;;;;44.38;15.98;;;4.90;99.90;;;;;;4992450;28;20034;-91
2023/11/30 11:42:27;;;;;;;30.90;13.55;;;5.00;99.90;;;;;;5002374;28;20018;-92
2023/11/30 11:44:53;;;;;;;29.55;14.00;;;5.00;99.90;;;;;;4991857;28;20038;-91
2023/11/30 11:47:21;;;;;;;33.63;14.93;;;5.10;99.90;;;;;;4994223;28;20408;-92
2023/11/30 11:49:49;;;;;;;32.40;13.55;;;5.20;99.90;;;;;;4995878;28;20072;-91
2023/11/30 11:52:21;;;;;;;31.20;13.40;;;5.10;99.90;;;;;;4978635;28;20105;-92
2023/11/30 11:55:00;;;;;;;30.33;13.68;;;5.00;99.90;;;;;;4989303;28;20051;-92
2023/11/30 11:57:40;;;;;;;26.92;12.63;;;5.00;99.90;;;;;;4993508;28;20030;-91
2023/11/30 12:00:13;;;;;;;29.38;13.23;;;5.00;99.90;;;;;;4993282;28;20042;-91
2023/11/30 12:02:39;;;;;;;31.60;13.13;;;5.10;99.90;;;;;;4994635;28;20024;-91
2023/11/30 12:05:20;;;;;;;28.27;13.10;;;5.10;99.90;;;;;;4994083;28;20402;-91
2023/11/30 12:07:57;;;;;;;35.67;13.88;;;5.10;99.90;;;;;;5006748;28;20026;-91
2023/11/30 12:10:42;;;;;;;36.65;15.10;;;5.00;99.90;;;;;;5003655;28;20409;-91
2023/11/30 12:13:13;;;;;;;29.80;13.88;;;5.00;99.90;;;;;;4993845;28;20513;-91
2023/11/30 12:15:39;;;;;;;34.35;16.15;;;5.00;99.90;;;;;;4986646;28;20498;-91
2023/11/30 12:18:05;;;;;;;26.90;13.48;;;5.00;99.90;;;;;;4994224;28;20037;-92
2023/11/30 12:20:31;;;;;;;35.72;16.13;;;4.90;99.90;;;;;;4993714;28;20406;-91
2023/11/30 12:22:59;;;;;;;36.53;15.35;;;4.90;99.90;;;;;;4995316;28;20444;-91
2023/11/30 12:25:28;;;;;;;;;;;4.90;99.90;;;;;;4994104;28;20027;-91
2023/11/30 12:27:56;;;;;;;29.50;13.70;;;5.00;99.90;;;;;;5010001;28;19927;-91
2023/11/30 12:30:23;;;;;;;33.72;14.23;;;5.00;99.90;;;;;;4992278;28;20054;-91
2023/11/30 12:32:50;;;;;;;29.83;14.18;;;5.00;99.90;;;;;;4984526;28;20096;-91
2023/11/30 12:35:16;;;;;;;33.95;14.68;;;4.80;99.90;;;;;;4993783;28;20022;-91
2023/11/30 12:37:42;;;;;;;28.08;13.75;;;4.80;99.90;;;;;;4993989;28;20037;-91
2023/11/30 12:40:13;;;;;;;29.25;13.93;;;4.90;99.90;;;;;;4993479;28;20034;-91
2023/11/30 12:42:40;;;;;;;26.55;13.95;;;4.90;99.90;;;;;;4987472;28;20117;-91
2023/11/30 12:45:07;;;;;;;34.17;14.48;;;4.80;99.90;;;;;;4993346;28;20034;-92
2023/11/30 12:47:32;;;;;;;27.80;14.43;;;4.80;99.90;;;;;;4993972;28;20056;-91